Time;durP1;ratioP1;P1;durP2;ratioP2;P2;SDS_P1;SDS_P2;PMS_P1;PMS_P2;Temp;Humidity;BMP_temperature;BMP_pressure;BME280_temperature;BME280_humidity;BME280_pressure;Samples;Min_cycle;Max_cycle;Signal;HPM_P1;HPM_P2
2022/05/20 00:00:47;;;;;;;8.73;3.63;;;19.10;44.40;;;;;;5058461;28;46398;-60
2022/05/20 00:03:12;;;;;;;6.40;3.50;;;19.10;44.40;;;;;;5050349;28;48404;-60
2022/05/20 00:05:38;;;;;;;7.30;3.90;;;19.00;44.40;;;;;;5052887;28;45839;-60
2022/05/20 00:08:05;;;;;;;5.60;3.20;;;19.00;44.70;;;;;;5051213;28;46620;-60
2022/05/20 00:10:30;;;;;;;13.53;3.70;;;18.90;44.80;;;;;;5051121;28;46597;-60
2022/05/20 00:13:00;;;;;;;11.03;3.77;;;18.80;45.40;;;;;;5052751;28;47112;-60
2022/05/20 00:15:27;;;;;;;15.07;3.70;;;18.80;45.80;;;;;;5047727;28;46374;-60
2022/05/20 00:17:54;;;;;;;5.33;3.30;;;18.70;46.50;;;;;;5052926;28;46434;-60
2022/05/20 00:20:23;;;;;;;11.67;4.40;;;18.70;46.50;;;;;;5050730;28;46055;-61
2022/05/20 00:22:49;;;;;;;9.17;3.40;;;18.60;46.40;;;;;;5051857;28;46581;-60
2022/05/20 00:28:02;;;;;;;8.27;3.60;;;18.60;46.40;;;;;;5048236;28;46348;-60
2022/05/20 00:30:28;;;;;;;11.17;3.70;;;18.50;46.30;;;;;;5052260;28;46510;-62
2022/05/20 00:32:54;;;;;;;5.23;3.57;;;18.40;46.10;;;;;;5050465;28;46434;-60
2022/05/20 00:35:21;;;;;;;11.67;3.83;;;18.40;46.20;;;;;;5049976;28;46745;-60
2022/05/20 00:37:46;;;;;;;6.20;3.37;;;18.30;46.70;;;;;;5053001;28;46528;-60
2022/05/20 00:40:15;;;;;;;5.33;3.50;;;18.30;47.10;;;;;;5054878;28;45900;-62
2022/05/20 00:42:42;;;;;;;14.13;3.80;;;18.20;47.80;;;;;;5047863;28;46625;-61
2022/05/20 00:45:10;;;;;;;11.90;3.87;;;18.10;48.10;;;;;;5052509;28;46461;-61
2022/05/20 00:47:36;;;;;;;5.07;3.57;;;18.00;48.60;;;;;;5047904;28;46484;-60
2022/05/20 00:50:06;;;;;;;17.97;4.10;;;18.00;49.20;;;;;;5049020;28;46518;-60
2022/05/20 00:52:36;;;;;;;9.50;3.30;;;17.90;49.60;;;;;;5051939;28;47081;-62
2022/05/20 00:55:06;;;;;;;6.20;3.17;;;17.80;50.00;;;;;;5048182;28;45817;-61
2022/05/20 00:57:36;;;;;;;9.30;3.60;;;17.80;50.00;;;;;;5051710;28;46360;-61
2022/05/20 01:00:30;;;;;;;8.27;3.30;;;17.80;50.10;;;;;;5050514;28;46309;-62
2022/05/20 01:03:03;;;;;;;11.20;3.60;;;17.80;50.40;;;;;;5049799;28;46063;-61
2022/05/20 01:05:44;;;;;;;8.43;4.30;;;17.80;50.30;;;;;;5056237;28;46409;-61
2022/05/20 01:08:13;;;;;;;10.63;3.80;;;17.70;50.40;;;;;;5051427;28;46418;-61
2022/05/20 01:10:39;;;;;;;15.10;4.43;;;17.70;50.70;;;;;;5054055;28;46461;-61
2022/05/20 01:13:05;;;;;;;9.67;4.07;;;17.70;50.90;;;;;;5052978;28;47260;-61
2022/05/20 01:15:32;;;;;;;10.47;4.00;;;17.70;51.10;;;;;;5059663;28;46520;-61
2022/05/20 01:17:58;;;;;;;7.97;3.93;;;17.60;51.70;;;;;;5054765;28;46227;-61
2022/05/20 01:20:30;;;;;;;11.53;3.93;;;17.60;52.20;;;;;;5048672;28;46322;-61
2022/05/20 01:22:58;;;;;;;6.80;3.63;;;17.60;52.30;;;;;;5053727;28;48360;-61
2022/05/20 01:25:26;;;;;;;8.37;3.40;;;17.60;52.50;;;;;;5053246;28;46239;-61
2022/05/20 01:27:52;;;;;;;13.80;4.33;;;17.60;52.20;;;;;;5048308;28;46381;-61
2022/05/20 01:30:21;;;;;;;11.90;4.10;;;17.70;52.20;;;;;;5050102;28;46379;-62
2022/05/20 01:32:47;;;;;;;8.90;4.17;;;17.70;52.60;;;;;;5045221;28;47727;-62
2022/05/20 01:35:39;;;;;;;9.97;3.83;;;17.70;52.40;;;;;;5049801;28;46411;-61
2022/05/20 01:38:06;;;;;;;7.00;3.47;;;17.70;52.40;;;;;;5047627;28;46436;-61
2022/05/20 01:40:44;;;;;;;8.50;3.67;;;17.70;52.30;;;;;;5046485;28;46417;-59
2022/05/20 01:43:32;;;;;;;11.33;4.40;;;17.70;52.40;;;;;;5048768;28;46373;-62
2022/05/20 01:46:12;;;;;;;10.30;3.93;;;17.60;52.20;;;;;;5043336;28;46286;-61
2022/05/20 01:49:06;;;;;;;7.40;4.23;;;17.60;52.90;;;;;;5049352;28;46506;-61
2022/05/20 01:51:42;;;;;;;8.03;4.43;;;17.60;52.70;;;;;;5057794;28;46469;-61
2022/05/20 01:54:14;;;;;;;10.60;4.33;;;17.60;52.80;;;;;;5050319;28;46340;-61
2022/05/20 01:56:49;;;;;;;8.50;4.67;;;17.50;52.60;;;;;;5047577;28;45825;-61
2022/05/20 01:59:32;;;;;;;9.03;4.10;;;17.50;52.70;;;;;;5044083;28;46480;-60
2022/05/20 02:02:12;;;;;;;8.17;4.67;;;17.50;52.70;;;;;;5050241;28;46952;-61
2022/05/20 02:04:43;;;;;;;8.93;4.70;;;17.50;53.80;;;;;;5048334;28;46672;-61
2022/05/20 02:07:16;;;;;;;11.13;4.27;;;17.50;52.60;;;;;;5047486;28;45928;-61
2022/05/20 02:10:10;;;;;;;7.47;4.70;;;17.50;52.70;;;;;;5046439;28;45833;-62
2022/05/20 02:12:41;;;;;;;10.73;4.80;;;17.40;53.00;;;;;;5047195;28;46391;-61
2022/05/20 02:15:32;;;;;;;6.90;4.23;;;17.30;52.80;;;;;;5045993;28;46663;-61
2022/05/20 02:18:03;;;;;;;8.53;4.47;;;17.20;53.00;;;;;;5044642;28;45826;-61
2022/05/20 02:20:35;;;;;;;12.93;5.07;;;17.10;53.30;;;;;;5044529;28;46616;-61
2022/05/20 02:23:09;;;;;;;12.90;4.50;;;16.90;53.80;;;;;;5045773;28;46374;-61
2022/05/20 02:25:38;;;;;;;11.00;4.73;;;16.80;54.30;;;;;;5048851;28;46501;-62
2022/05/20 02:28:20;;;;;;;7.50;5.00;;;16.70;55.90;;;;;;5050576;28;46417;-61
2022/05/20 02:30:47;;;;;;;7.80;4.63;;;16.60;55.30;;;;;;5049445;28;45810;-61
2022/05/20 02:33:17;;;;;;;10.43;4.90;;;16.60;55.00;;;;;;5046494;28;46812;-61
2022/05/20 02:35:43;;;;;;;13.27;5.57;;;16.60;55.10;;;;;;5051985;28;46727;-60
2022/05/20 02:38:12;;;;;;;9.20;4.97;;;16.60;56.40;;;;;;5049455;28;46606;-61
2022/05/20 02:40:40;;;;;;;15.67;5.40;;;16.60;55.20;;;;;;5047938;28;46373;-61
2022/05/20 02:43:06;;;;;;;11.67;4.70;;;16.60;55.30;;;;;;5047174;28;46579;-61
2022/05/20 02:45:33;;;;;;;9.33;4.90;;;16.50;55.50;;;;;;5055204;28;47929;-61
2022/05/20 02:47:58;;;;;;;9.63;4.83;;;16.60;55.50;;;;;;5051801;28;46175;-61
2022/05/20 02:50:24;;;;;;;13.60;4.93;;;16.60;55.30;;;;;;5052647;28;46378;-62
2022/05/20 02:52:50;;;;;;;11.13;5.10;;;16.60;55.30;;;;;;5055705;28;46609;-61
2022/05/20 02:55:16;;;;;;;8.83;5.17;;;16.60;55.20;;;;;;5052323;28;46704;-62
2022/05/20 02:57:42;;;;;;;9.20;5.40;;;16.60;55.40;;;;;;5051041;28;46511;-61
2022/05/20 03:05:36;;;;;;;8.30;4.47;;;16.50;55.70;;;;;;5050791;28;46672;-61
2022/05/20 03:08:02;;;;;;;10.90;5.50;;;16.50;55.80;;;;;;5054858;28;46454;-60
2022/05/20 03:10:28;;;;;;;8.93;5.53;;;16.40;56.00;;;;;;5050441;28;46461;-62
2022/05/20 03:13:06;;;;;;;8.93;5.70;;;16.30;56.20;;;;;;5051997;28;46314;-62
2022/05/20 03:15:32;;;;;;;14.00;4.90;;;16.20;57.00;;;;;;5051120;28;46392;-61
2022/05/20 03:17:58;;;;;;;11.50;5.77;;;16.20;56.80;;;;;;5049649;28;46497;-60
2022/05/20 03:20:25;;;;;;;9.30;4.60;;;16.20;56.70;;;;;;5051968;28;46538;-62
2022/05/20 03:22:50;;;;;;;11.17;4.73;;;16.20;56.60;;;;;;5049598;28;45888;-62
2022/05/20 03:25:16;;;;;;;11.10;5.30;;;16.20;56.60;;;;;;5054326;28;47549;-61
2022/05/20 03:27:42;;;;;;;8.73;4.90;;;16.20;56.60;;;;;;5046648;28;46429;-61
2022/05/20 03:30:10;;;;;;;11.30;4.77;;;16.20;56.40;;;;;;5049264;28;46492;-60
2022/05/20 03:32:36;;;;;;;9.17;4.30;;;16.30;56.40;;;;;;5057995;28;46385;-61
2022/05/20 03:35:02;;;;;;;7.40;5.13;;;16.20;56.20;;;;;;5058932;28;47175;-61
2022/05/20 03:37:28;;;;;;;9.07;5.23;;;16.20;57.60;;;;;;5051289;28;46650;-61
2022/05/20 03:39:57;;;;;;;10.63;4.60;;;16.30;56.40;;;;;;5057770;28;46339;-61
2022/05/20 03:42:24;;;;;;;8.10;4.77;;;16.30;56.50;;;;;;5052666;28;46354;-60
2022/05/20 03:44:50;;;;;;;10.67;4.90;;;16.30;56.50;;;;;;5052854;28;46653;-61
2022/05/20 03:47:16;;;;;;;12.00;5.00;;;16.30;56.60;;;;;;5054686;28;46298;-61
2022/05/20 03:49:45;;;;;;;10.23;4.60;;;16.30;56.60;;;;;;5049147;28;46275;-61
2022/05/20 03:52:10;;;;;;;7.13;4.33;;;16.30;56.60;;;;;;5054708;28;45837;-61
2022/05/20 03:54:36;;;;;;;16.07;5.20;;;16.40;56.60;;;;;;5050112;28;46615;-60
2022/05/20 03:57:03;;;;;;;10.00;5.30;;;16.40;56.40;;;;;;5051978;28;46452;-62
2022/05/20 03:59:33;;;;;;;11.53;4.30;;;16.50;56.30;;;;;;5051688;28;46404;-61
2022/05/20 04:01:59;;;;;;;6.37;4.67;;;16.60;56.10;;;;;;5043690;28;46543;-60
2022/05/20 04:04:31;;;;;;;12.73;6.10;;;16.60;55.90;;;;;;5057288;28;46475;-62
2022/05/20 04:07:08;;;;;;;9.63;5.47;;;16.80;55.80;;;;;;5045535;28;46308;-62
2022/05/20 04:09:34;;;;;;;12.20;7.00;;;16.80;55.50;;;;;;5050084;28;46519;-63
2022/05/20 04:12:03;;;;;;;16.37;7.90;;;17.00;55.30;;;;;;5048959;28;46464;-62
2022/05/20 04:14:30;;;;;;;10.57;6.53;;;17.10;55.00;;;;;;5049948;28;46522;-62
2022/05/20 04:16:57;;;;;;;12.53;6.20;;;17.30;54.70;;;;;;5051797;28;46430;-60
2022/05/20 04:19:28;;;;;;;7.90;4.90;;;17.40;54.40;;;;;;5050455;28;46516;-62
2022/05/20 04:21:58;;;;;;;10.37;4.60;;;17.50;54.30;;;;;;5050540;28;46358;-61
2022/05/20 04:24:24;;;;;;;7.00;4.80;;;17.60;54.10;;;;;;5057315;28;47131;-62
2022/05/20 04:26:51;;;;;;;11.33;4.90;;;17.70;53.80;;;;;;5055677;28;45880;-63
2022/05/20 04:29:18;;;;;;;7.90;4.40;;;17.80;53.70;;;;;;5057148;28;46773;-63
2022/05/20 04:31:53;;;;;;;7.40;5.43;;;17.90;53.60;;;;;;5056649;28;46478;-61
2022/05/20 04:34:19;;;;;;;9.27;4.63;;;18.00;53.60;;;;;;5049452;28;46293;-61
2022/05/20 04:36:45;;;;;;;15.50;5.10;;;18.10;53.30;;;;;;5054082;28;46303;-60
2022/05/20 04:39:11;;;;;;;6.00;4.57;;;18.20;52.90;;;;;;5049683;28;46408;-61
2022/05/20 04:47:23;;;;;;;8.77;4.27;;;18.70;52.20;;;;;;5058228;28;46300;-61
2022/05/20 04:49:49;;;;;;;10.53;4.40;;;18.90;51.70;;;;;;5049816;28;46463;-62
2022/05/20 04:52:15;;;;;;;10.10;4.53;;;19.10;51.30;;;;;;5056163;28;46396;-61
2022/05/20 04:54:50;;;;;;;7.40;4.17;;;19.50;51.00;;;;;;5051244;28;46421;-61
2022/05/20 04:57:36;;;;;;;6.47;3.73;;;20.00;50.00;;;;;;5055372;28;46620;-62
2022/05/20 05:00:09;;;;;;;6.30;4.13;;;20.80;48.40;;;;;;5052894;28;46272;-62
2022/05/20 05:02:35;;;;;;;6.70;4.10;;;21.50;47.10;;;;;;5050057;28;46387;-61
2022/05/20 05:05:01;;;;;;;5.13;3.50;;;22.10;45.90;;;;;;5049707;28;47373;-62
2022/05/20 05:07:27;;;;;;;6.13;3.80;;;22.50;44.70;;;;;;5048405;27;46710;-60
2022/05/20 05:09:53;;;;;;;9.50;4.00;;;22.70;43.70;;;;;;5043826;28;46295;-60
2022/05/20 05:12:19;;;;;;;8.80;4.13;;;22.90;42.80;;;;;;5051126;28;46393;-60
2022/05/20 05:14:48;;;;;;;5.80;3.60;;;22.90;43.60;;;;;;5052033;28;46755;-61
2022/05/20 05:20:06;;;;;;;11.20;3.83;;;23.00;41.80;;;;;;5050868;28;46667;-61
2022/05/20 05:22:32;;;;;;;8.33;3.80;;;23.30;41.20;;;;;;5050778;28;46045;-61
2022/05/20 05:24:57;;;;;;;6.37;3.50;;;23.60;40.50;;;;;;5049951;28;47077;-61
2022/05/20 05:27:23;;;;;;;7.40;3.13;;;23.80;39.60;;;;;;5046981;28;46307;-60
2022/05/20 05:29:49;;;;;;;7.20;4.23;;;23.90;39.00;;;;;;5046268;28;45842;-61
2022/05/20 05:32:14;;;;;;;7.10;4.00;;;24.20;37.90;;;;;;5050069;28;46390;-60
2022/05/20 05:34:40;;;;;;;8.27;4.30;;;24.70;37.90;;;;;;5050770;28;46998;-60
2022/05/20 05:37:05;;;;;;;6.53;3.57;;;25.10;36.20;;;;;;5049302;28;46424;-62
2022/05/20 05:39:31;;;;;;;6.40;4.10;;;25.80;33.90;;;;;;5047514;28;46337;-61
2022/05/20 05:41:59;;;;;;;11.60;4.20;;;26.70;31.50;;;;;;5049351;28;46606;-61
2022/05/20 05:44:25;;;;;;;5.80;3.67;;;27.30;29.60;;;;;;5047151;28;49041;-60
2022/05/20 05:46:51;;;;;;;6.30;3.40;;;28.00;28.50;;;;;;5050843;28;46448;-60
2022/05/20 05:49:16;;;;;;;7.37;3.53;;;27.90;27.90;;;;;;5050118;28;46761;-60
2022/05/20 05:51:43;;;;;;;8.30;3.93;;;27.80;27.80;;;;;;5049700;28;46620;-60
2022/05/20 05:54:08;;;;;;;5.20;3.33;;;27.50;28.20;;;;;;5054530;28;46801;-61
2022/05/20 05:56:36;;;;;;;9.27;3.73;;;27.20;28.60;;;;;;5047169;28;46361;-61
2022/05/20 05:59:02;;;;;;;5.03;3.70;;;27.10;29.20;;;;;;5046033;28;46404;-61
2022/05/20 06:01:28;;;;;;;7.43;3.40;;;26.90;29.30;;;;;;5052680;28;46417;-60
2022/05/20 06:03:54;;;;;;;8.80;4.23;;;27.00;29.50;;;;;;5047473;28;47462;-60
2022/05/20 06:06:19;;;;;;;8.47;4.40;;;27.10;29.00;;;;;;5048304;28;46468;-61
2022/05/20 06:08:45;;;;;;;6.03;4.37;;;27.00;29.20;;;;;;5046819;28;46443;-61
2022/05/20 06:11:12;;;;;;;6.47;4.80;;;27.00;29.80;;;;;;5047817;28;46398;-61
2022/05/20 06:13:38;;;;;;;13.10;5.43;;;26.90;30.30;;;;;;5049468;28;46434;-59
2022/05/20 06:16:03;;;;;;;7.20;4.70;;;26.70;31.40;;;;;;5046300;28;46384;-60
2022/05/20 06:18:29;;;;;;;6.93;4.60;;;26.60;31.90;;;;;;5047420;28;46310;-60
2022/05/20 06:20:55;;;;;;;9.10;4.00;;;26.40;31.80;;;;;;5047802;28;46586;-61
2022/05/20 06:23:21;;;;;;;6.70;3.83;;;26.10;31.90;;;;;;5049715;28;46335;-60
2022/05/20 06:25:47;;;;;;;6.43;3.87;;;26.00;32.20;;;;;;5048460;28;46368;-61
2022/05/20 06:28:16;;;;;;;5.93;3.57;;;26.10;31.60;;;;;;5053755;28;45740;-61
2022/05/20 06:30:43;;;;;;;6.50;4.00;;;26.00;31.50;;;;;;5056695;28;47037;-60
2022/05/20 06:33:09;;;;;;;5.20;3.27;;;25.80;31.60;;;;;;5051690;28;46892;-60
2022/05/20 06:41:04;;;;;;;8.33;3.83;;;25.80;32.30;;;;;;5048213;28;46479;-61
2022/05/20 06:43:30;;;;;;;6.20;3.77;;;25.70;32.70;;;;;;5052068;28;46432;-61
2022/05/20 06:46:00;;;;;;;5.13;3.10;;;25.90;32.90;;;;;;5048623;28;46402;-61
2022/05/20 06:48:45;;;;;;;6.10;3.60;;;25.90;32.20;;;;;;5048236;28;46442;-61
2022/05/20 06:51:12;;;;;;;6.00;3.63;;;26.00;32.10;;;;;;5048705;28;46410;-61
2022/05/20 06:53:37;;;;;;;5.90;3.10;;;26.00;31.60;;;;;;5049854;28;46356;-61
2022/05/20 06:56:04;;;;;;;6.80;3.20;;;26.10;32.80;;;;;;5048480;28;46377;-61
2022/05/20 06:58:31;;;;;;;7.73;3.57;;;26.20;31.50;;;;;;5048056;28;46414;-61
2022/05/20 07:00:57;;;;;;;4.80;3.63;;;26.20;31.40;;;;;;5050431;28;45856;-61
2022/05/20 07:03:22;;;;;;;7.10;3.60;;;26.40;31.30;;;;;;5046995;28;45939;-61
2022/05/20 07:05:48;;;;;;;7.80;3.33;;;26.50;31.00;;;;;;5046391;28;46412;-60
2022/05/20 07:08:14;;;;;;;8.53;3.67;;;26.70;30.60;;;;;;5066364;28;46439;-60
2022/05/20 07:10:40;;;;;;;5.53;3.47;;;26.80;30.00;;;;;;5047884;28;47596;-61
2022/05/20 07:13:06;;;;;;;5.40;2.90;;;27.00;29.90;;;;;;5047129;28;47074;-61
2022/05/20 07:15:32;;;;;;;10.47;3.70;;;27.00;29.80;;;;;;5050295;28;46516;-61
2022/05/20 07:17:58;;;;;;;10.50;4.20;;;27.00;29.70;;;;;;5046613;28;46508;-61
2022/05/20 07:20:23;;;;;;;5.20;3.57;;;27.10;29.60;;;;;;5048781;28;46457;-60
2022/05/20 07:22:49;;;;;;;7.23;3.10;;;27.10;29.10;;;;;;5049958;28;46409;-60
2022/05/20 07:25:14;;;;;;;10.17;3.20;;;27.20;29.00;;;;;;5052254;28;46461;-60
2022/05/20 07:27:40;;;;;;;10.50;3.57;;;27.10;28.70;;;;;;5051031;28;46370;-60
2022/05/20 07:30:08;;;;;;;12.53;3.63;;;27.20;28.50;;;;;;5050263;28;46618;-61
2022/05/20 07:32:33;;;;;;;10.27;3.80;;;27.30;28.30;;;;;;5054991;28;46390;-61
2022/05/20 07:34:59;;;;;;;4.67;3.47;;;27.40;28.40;;;;;;5049049;28;46404;-61
2022/05/20 07:37:25;;;;;;;7.10;3.30;;;27.50;28.40;;;;;;5056725;28;46415;-60
2022/05/20 07:39:51;;;;;;;5.33;3.57;;;27.60;28.30;;;;;;5053856;28;45893;-60
2022/05/20 07:42:17;;;;;;;10.00;3.57;;;27.70;28.40;;;;;;5052913;28;46487;-60
2022/05/20 07:44:42;;;;;;;8.50;2.93;;;27.70;28.00;;;;;;5053519;28;46926;-60
2022/05/20 07:47:08;;;;;;;4.33;3.00;;;27.80;27.50;;;;;;5050980;28;46465;-61
2022/05/20 07:49:34;;;;;;;4.80;2.97;;;27.90;27.50;;;;;;5053042;28;46580;-59
2022/05/20 07:52:03;;;;;;;6.57;3.70;;;28.00;27.60;;;;;;5047549;28;46474;-59
2022/05/20 07:54:34;;;;;;;5.27;3.23;;;28.10;27.60;;;;;;5054522;28;46470;-59
2022/05/20 07:57:04;;;;;;;12.03;3.57;;;28.20;27.00;;;;;;5048523;28;46544;-60
2022/05/20 07:59:40;;;;;;;9.20;3.37;;;28.40;26.90;;;;;;5052064;28;46424;-59
2022/05/20 08:02:07;;;;;;;8.20;2.77;;;28.30;26.50;;;;;;5064773;28;48283;-60
2022/05/20 08:07:27;;;;;;;19.87;2.87;;;28.40;26.80;;;;;;5051033;28;46460;-60
2022/05/20 08:09:53;;;;;;;11.97;3.30;;;28.40;26.60;;;;;;5050991;28;46432;-60
2022/05/20 08:12:19;;;;;;;10.23;3.23;;;28.50;26.30;;;;;;5050995;28;47119;-59
2022/05/20 08:14:45;;;;;;;7.53;3.57;;;28.70;26.00;;;;;;5048154;28;46381;-60
2022/05/20 08:17:10;;;;;;;6.23;3.40;;;28.60;26.20;;;;;;5052456;28;46417;-60
2022/05/20 08:19:37;;;;;;;9.17;3.93;;;28.60;26.30;;;;;;5050359;28;46456;-60
2022/05/20 08:22:03;;;;;;;4.77;2.87;;;28.40;26.50;;;;;;5052136;28;47360;-60
2022/05/20 08:24:30;;;;;;;13.43;3.30;;;28.40;27.00;;;;;;5048395;28;46420;-61
2022/05/20 08:26:56;;;;;;;5.03;3.03;;;28.60;26.60;;;;;;5049968;28;46379;-60
2022/05/20 08:29:22;;;;;;;7.30;3.43;;;28.80;26.60;;;;;;5047265;28;46597;-59
2022/05/20 08:31:48;;;;;;;10.17;3.77;;;28.90;25.80;;;;;;5057105;28;47194;-60
2022/05/20 08:34:13;;;;;;;5.90;3.00;;;28.80;26.30;;;;;;5051546;28;46334;-60
2022/05/20 08:36:40;;;;;;;7.13;3.33;;;29.10;25.90;;;;;;5057148;28;46095;-60
2022/05/20 08:39:10;;;;;;;7.63;3.23;;;29.10;26.30;;;;;;5050218;28;46448;-61
2022/05/20 08:41:40;;;;;;;6.00;3.13;;;29.10;26.30;;;;;;5051120;28;48848;-60
2022/05/20 08:44:08;;;;;;;9.00;3.50;;;29.10;26.20;;;;;;5051980;28;46424;-59
2022/05/20 08:46:34;;;;;;;9.73;3.70;;;29.20;26.00;;;;;;5047417;28;46445;-60
2022/05/20 08:49:00;;;;;;;4.97;2.80;;;29.30;25.40;;;;;;5051188;28;46521;-59
2022/05/20 08:51:30;;;;;;;7.70;2.97;;;29.30;25.50;;;;;;5045460;28;46442;-59
2022/05/20 08:53:56;;;;;;;4.43;2.80;;;29.40;25.10;;;;;;5051704;28;46596;-60
2022/05/20 08:56:25;;;;;;;4.60;3.23;;;29.50;25.00;;;;;;5048985;28;45884;-61
2022/05/20 08:58:57;;;;;;;5.97;3.20;;;29.30;25.40;;;;;;5047767;28;46416;-59
2022/05/20 09:01:27;;;;;;;6.57;3.80;;;29.20;25.00;;;;;;5054340;28;46307;-59
2022/05/20 09:03:52;;;;;;;7.53;3.50;;;29.10;25.10;;;;;;5047506;28;46330;-59
2022/05/20 09:06:18;;;;;;;6.27;3.57;;;29.20;25.10;;;;;;5049271;28;45894;-60
2022/05/20 09:09:00;;;;;;;8.30;3.07;;;29.30;25.10;;;;;;5050962;28;46420;-59
2022/05/20 09:11:30;;;;;;;5.60;2.87;;;29.30;24.60;;;;;;5050336;28;46452;-60
2022/05/20 09:17:21;;;;;;;5.33;2.60;;;29.60;24.80;;;;;;5057019;28;46497;-61
2022/05/20 09:20:03;;;;;;;6.80;3.30;;;29.90;24.00;;;;;;5050066;28;46784;-59
2022/05/20 09:22:30;;;;;;;13.63;4.07;;;30.20;23.60;;;;;;5053953;28;46416;-60
2022/05/20 09:24:56;;;;;;;6.70;2.67;;;30.20;23.80;;;;;;5050908;28;46518;-59
2022/05/20 09:27:36;;;;;;;9.40;3.47;;;30.20;23.70;;;;;;5053918;28;46431;-60
2022/05/20 09:30:06;;;;;;;9.50;3.73;;;30.40;23.70;;;;;;5050245;28;46712;-61
2022/05/20 09:32:47;;;;;;;7.83;3.43;;;30.40;23.60;;;;;;5050226;28;47339;-61
2022/05/20 09:35:21;;;;;;;6.10;3.07;;;30.50;23.40;;;;;;5052535;28;46524;-61
2022/05/20 09:37:52;;;;;;;7.17;3.13;;;30.50;23.10;;;;;;5047774;28;46347;-60
2022/05/20 09:40:41;;;;;;;11.30;3.70;;;30.60;22.90;;;;;;5049926;28;46719;-61
2022/05/20 09:43:35;;;;;;;9.30;3.27;;;30.80;22.90;;;;;;5044018;28;47260;-60
2022/05/20 09:46:03;;;;;;;13.90;3.27;;;30.80;22.70;;;;;;5048958;28;46566;-60
2022/05/20 09:49:09;;;;;;;8.53;2.70;;;30.80;22.30;;;;;;5055267;28;46485;-59
2022/05/20 09:51:45;;;;;;;11.57;3.63;;;30.90;21.70;;;;;;5049602;28;46341;-60
2022/05/20 09:54:32;;;;;;;6.10;3.53;;;31.00;21.00;;;;;;5050412;28;46526;-60
2022/05/20 09:57:28;;;;;;;8.60;3.27;;;31.00;21.00;;;;;;5049207;28;46674;-59
2022/05/20 09:59:54;;;;;;;6.23;3.73;;;30.90;20.00;;;;;;5051870;28;46559;-61
2022/05/20 10:02:24;;;;;;;6.43;3.50;;;30.90;20.40;;;;;;5048000;28;46452;-61
2022/05/20 10:05:16;;;;;;;9.13;3.70;;;30.90;20.00;;;;;;5054905;28;46400;-61
2022/05/20 10:08:01;;;;;;;7.27;2.90;;;30.90;19.00;;;;;;5051745;28;46368;-61
2022/05/20 10:10:50;;;;;;;7.13;3.90;;;31.00;18.70;;;;;;5047919;28;46436;-61
2022/05/20 10:13:19;;;;;;;9.83;3.70;;;31.10;19.10;;;;;;5050638;28;46290;-60
2022/05/20 10:15:51;;;;;;;10.57;3.70;;;31.10;18.60;;;;;;5048545;28;46424;-60
2022/05/20 10:18:28;;;;;;;10.73;3.27;;;31.10;18.10;;;;;;5047108;28;46433;-59
2022/05/20 10:21:13;;;;;;;7.87;3.50;;;31.10;18.20;;;;;;5050108;28;46284;-59
2022/05/20 10:23:56;;;;;;;6.30;3.60;;;31.00;18.10;;;;;;5052487;28;46467;-60
2022/05/20 10:26:40;;;;;;;9.90;4.20;;;30.90;18.30;;;;;;5049022;28;46453;-58
2022/05/20 10:32:47;;;;;;;9.73;3.73;;;31.00;18.20;;;;;;5047149;28;46459;-60
2022/05/20 10:35:24;;;;;;;9.40;3.00;;;31.10;18.10;;;;;;5047412;28;46680;-60
2022/05/20 10:38:11;;;;;;;11.30;3.80;;;31.30;18.30;;;;;;5046785;28;47236;-60
2022/05/20 10:41:07;;;;;;;8.97;3.40;;;31.40;17.80;;;;;;5047944;28;46602;-60
2022/05/20 10:49:55;;;;;;;8.23;3.20;;;31.50;16.70;;;;;;5041506;28;47150;-61
2022/05/20 10:52:28;;;;;;;6.30;3.23;;;31.50;17.10;;;;;;5046350;28;46521;-60
2022/05/20 10:55:13;;;;;;;7.40;3.40;;;31.20;18.20;;;;;;5045662;28;46758;-60
2022/05/20 10:58:22;;;;;;;5.70;3.80;;;31.20;18.20;;;;;;5049847;28;46536;-60
2022/05/20 11:00:55;;;;;;;5.17;3.50;;;31.10;19.00;;;;;;5050735;28;46623;-62
2022/05/20 11:03:48;;;;;;;9.60;3.40;;;31.00;18.80;;;;;;5050456;28;46363;-60
2022/05/20 11:06:22;;;;;;;11.10;3.53;;;30.80;19.70;;;;;;5059774;28;46431;-59
2022/05/20 11:09:08;;;;;;;7.30;3.90;;;30.90;20.10;;;;;;5051806;28;46422;-61
2022/05/20 11:11:53;;;;;;;5.73;3.50;;;31.10;19.00;;;;;;5056623;28;46709;-59
2022/05/20 11:14:47;;;;;;;8.67;3.30;;;31.20;18.10;;;;;;5049791;28;46580;-60
2022/05/20 11:17:49;;;;;;;9.13;3.33;;;31.30;18.20;;;;;;5056614;28;46448;-59
2022/05/20 11:20:17;;;;;;;5.90;3.63;;;31.40;18.20;;;;;;5051125;28;46245;-59
2022/05/20 11:23:17;;;;;;;6.10;3.30;;;31.20;18.20;;;;;;5054371;28;46311;-60
2022/05/20 11:26:03;;;;;;;8.60;3.10;;;31.00;18.40;;;;;;5048044;28;46498;-60
2022/05/20 11:28:47;;;;;;;8.57;3.37;;;31.20;18.20;;;;;;5053980;28;46330;-63
2022/05/20 11:31:22;;;;;;;6.53;3.20;;;31.20;18.20;;;;;;5052855;28;46604;-59
2022/05/20 11:34:02;;;;;;;6.53;3.30;;;31.40;18.30;;;;;;5053052;28;46418;-60
2022/05/20 11:36:47;;;;;;;7.03;3.20;;;31.50;17.30;;;;;;5053495;28;46283;-61
2022/05/20 11:39:27;;;;;;;14.20;3.63;;;31.60;16.90;;;;;;5053637;28;46476;-61
2022/05/20 11:42:15;;;;;;;10.23;3.90;;;31.60;17.40;;;;;;5049067;28;46335;-60
2022/05/20 11:45:14;;;;;;;6.40;2.60;;;31.70;17.70;;;;;;5052706;28;47184;-61
2022/05/20 11:48:15;;;;;;;6.23;3.00;;;31.70;17.50;;;;;;5047859;28;46365;-60
2022/05/20 11:50:40;;;;;;;7.17;2.73;;;31.70;17.60;;;;;;5049629;28;46362;-61
2022/05/20 11:53:17;;;;;;;5.23;3.20;;;31.70;17.90;;;;;;5050767;28;46643;-60
2022/05/20 11:56:11;;;;;;;5.37;3.30;;;31.90;17.50;;;;;;5051817;28;46623;-61
2022/05/20 11:58:40;;;;;;;7.43;3.07;;;31.90;17.50;;;;;;5053781;28;46321;-60
2022/05/20 12:01:08;;;;;;;9.33;2.87;;;31.70;16.80;;;;;;5054591;28;46317;-61
2022/05/20 12:06:24;;;;;;;7.03;2.97;;;31.40;18.10;;;;;;5048201;28;46369;-60
2022/05/20 12:08:53;;;;;;;8.03;2.80;;;31.60;16.40;;;;;;5053057;28;46450;-60
2022/05/20 12:11:21;;;;;;;5.43;2.50;;;31.40;17.10;;;;;;5047883;28;46368;-60
2022/05/20 12:14:00;;;;;;;9.30;2.60;;;31.40;17.00;;;;;;5051725;28;46298;-61
2022/05/20 12:16:25;;;;;;;6.07;3.10;;;31.40;15.90;;;;;;5052971;28;46343;-61
2022/05/20 12:24:32;;;;;;;14.20;3.00;;;31.50;16.10;;;;;;5046619;28;46361;-60
2022/05/20 12:26:58;;;;;;;7.60;2.90;;;31.50;15.80;;;;;;5050722;28;46414;-60
2022/05/20 12:29:39;;;;;;;8.20;2.80;;;31.40;15.90;;;;;;5052958;28;45817;-59
2022/05/20 12:32:16;;;;;;;4.87;2.70;;;31.40;16.30;;;;;;5051069;28;46448;-59
2022/05/20 12:34:52;;;;;;;6.20;2.83;;;31.60;16.10;;;;;;5049356;28;46323;-61
2022/05/20 12:37:43;;;;;;;8.57;2.80;;;31.50;15.20;;;;;;5048844;28;47057;-61
2022/05/20 12:40:37;;;;;;;7.83;3.00;;;31.60;14.60;;;;;;5048885;28;45943;-60
2022/05/20 12:43:03;;;;;;;7.03;2.90;;;31.70;13.90;;;;;;5046528;28;46349;-60
2022/05/20 12:45:35;;;;;;;7.77;2.57;;;31.80;13.80;;;;;;5050665;28;46334;-60
2022/05/20 12:48:01;;;;;;;5.07;2.53;;;31.60;14.10;;;;;;5050152;28;46753;-60
2022/05/20 12:50:27;;;;;;;7.17;3.10;;;31.20;14.90;;;;;;5049966;28;46466;-60
2022/05/20 12:52:59;;;;;;;6.83;2.83;;;31.10;15.20;;;;;;5048751;28;46398;-61
2022/05/20 12:55:37;;;;;;;9.77;2.70;;;30.90;14.90;;;;;;5056333;28;46513;-61
2022/05/20 12:58:05;;;;;;;7.90;2.60;;;31.10;15.40;;;;;;5052743;28;47172;-59
2022/05/20 13:00:33;;;;;;;10.60;2.83;;;31.30;14.80;;;;;;5052036;28;46342;-61
2022/05/20 13:03:09;;;;;;;9.97;2.63;;;31.50;14.60;;;;;;5054990;28;46440;-60
2022/05/20 13:05:55;;;;;;;9.17;2.80;;;31.50;14.40;;;;;;5047497;28;46483;-60
2022/05/20 13:08:25;;;;;;;5.70;2.63;;;31.50;14.10;;;;;;5047386;28;47073;-60
2022/05/20 13:10:51;;;;;;;4.93;2.50;;;31.60;14.10;;;;;;5049476;28;46470;-60
2022/05/20 13:13:22;;;;;;;12.80;2.40;;;31.60;13.70;;;;;;5052657;28;46432;-61
2022/05/20 13:15:53;;;;;;;7.83;2.60;;;31.70;14.00;;;;;;5050295;28;46392;-60
2022/05/20 13:18:31;;;;;;;7.53;2.50;;;31.70;14.10;;;;;;5050853;28;48607;-61
2022/05/20 13:20:59;;;;;;;4.70;2.73;;;31.70;13.50;;;;;;5048633;28;46834;-61
2022/05/20 13:23:28;;;;;;;8.63;3.00;;;31.70;13.70;;;;;;5050239;28;45851;-61
2022/05/20 13:25:54;;;;;;;6.47;2.87;;;31.60;13.50;;;;;;5050982;28;46643;-60
2022/05/20 13:28:35;;;;;;;6.20;2.43;;;31.70;13.80;;;;;;5048570;28;46358;-60
2022/05/20 13:31:07;;;;;;;6.20;2.63;;;31.60;13.40;;;;;;5051372;28;46380;-61
2022/05/20 13:33:35;;;;;;;5.87;2.60;;;31.60;13.70;;;;;;5056152;28;46469;-60
2022/05/20 13:36:03;;;;;;;8.50;2.70;;;31.60;13.60;;;;;;5049064;28;46858;-59
2022/05/20 13:38:32;;;;;;;8.43;2.80;;;31.50;13.10;;;;;;5051568;28;47071;-59
2022/05/20 13:40:59;;;;;;;8.73;3.20;;;31.40;13.80;;;;;;5052005;28;46416;-59
2022/05/20 13:43:30;;;;;;;5.53;2.70;;;31.30;14.00;;;;;;5052837;28;46473;-60
2022/05/20 13:51:40;;;;;;;9.10;2.93;;;31.50;13.00;;;;;;5053301;28;46315;-59
2022/05/20 13:54:16;;;;;;;10.27;3.30;;;31.50;13.70;;;;;;5045118;28;46431;-59
2022/05/20 13:56:45;;;;;;;7.03;2.63;;;31.60;13.30;;;;;;5054413;28;46351;-59